sensor_id;sensor_type;location;lat;lon;timestamp;temperature;humidity
10873;DHT22;34586;53.616;10.032;2022-10-26T00:00:03;11.30;99.90
10873;DHT22;34586;53.616;10.032;2022-10-26T00:02:29;11.30;99.90
10873;DHT22;34586;53.616;10.032;2022-10-26T00:04:55;11.20;99.90
10873;DHT22;34586;53.616;10.032;2022-10-26T00:07:20;11.20;99.90
10873;DHT22;34586;53.616;10.032;2022-10-26T00:09:46;11.10;99.90
10873;DHT22;34586;53.616;10.032;2022-10-26T00:12:11;11.10;99.90
10873;DHT22;34586;53.616;10.032;2022-10-26T00:14:37;11.10;99.90
10873;DHT22;34586;53.616;10.032;2022-10-26T00:17:02;11.00;99.90
10873;DHT22;34586;53.616;10.032;2022-10-26T00:19:28;11.00;99.90
10873;DHT22;34586;53.616;10.032;2022-10-26T00:21:54;11.00;99.90
10873;DHT22;34586;53.616;10.032;2022-10-26T00:24:19;10.90;99.90
10873;DHT22;34586;53.616;10.032;2022-10-26T00:26:46;10.90;99.90
10873;DHT22;34586;53.616;10.032;2022-10-26T00:29:12;10.90;99.90
10873;DHT22;34586;53.616;10.032;2022-10-26T00:31:38;10.90;99.90
10873;DHT22;34586;53.616;10.032;2022-10-26T00:34:04;10.80;99.90
10873;DHT22;34586;53.616;10.032;2022-10-26T00:36:30;10.80;99.90
10873;DHT22;34586;53.616;10.032;2022-10-26T00:38:56;10.80;99.90
10873;DHT22;34586;53.616;10.032;2022-10-26T00:41:28;10.70;99.90
10873;DHT22;34586;53.616;10.032;2022-10-26T00:43:54;10.70;99.90
10873;DHT22;34586;53.616;10.032;2022-10-26T00:46:40;10.70;99.90
10873;DHT22;34586;53.616;10.032;2022-10-26T00:49:11;10.60;99.90
10873;DHT22;34586;53.616;10.032;2022-10-26T00:51:44;10.60;99.90
10873;DHT22;34586;53.616;10.032;2022-10-26T00:54:14;10.50;99.90
10873;DHT22;34586;53.616;10.032;2022-10-26T00:56:43;10.50;99.90
10873;DHT22;34586;53.616;10.032;2022-10-26T00:59:12;10.50;99.90
10873;DHT22;34586;53.616;10.032;2022-10-26T01:01:42;10.50;99.90
10873;DHT22;34586;53.616;10.032;2022-10-26T01:04:08;10.40;99.90
10873;DHT22;34586;53.616;10.032;2022-10-26T01:06:36;10.40;99.90
10873;DHT22;34586;53.616;10.032;2022-10-26T01:09:02;10.40;99.90
10873;DHT22;34586;53.616;10.032;2022-10-26T01:11:28;10.40;99.90
10873;DHT22;34586;53.616;10.032;2022-10-26T01:13:55;10.30;99.90
10873;DHT22;34586;53.616;10.032;2022-10-26T01:16:40;10.40;99.90
10873;DHT22;34586;53.616;10.032;2022-10-26T01:22:05;10.40;99.90
10873;DHT22;34586;53.616;10.032;2022-10-26T01:24:45;10.30;99.90
10873;DHT22;34586;53.616;10.032;2022-10-26T01:27:21;10.30;99.90
10873;DHT22;34586;53.616;10.032;2022-10-26T01:32:51;10.30;99.90
10873;DHT22;34586;53.616;10.032;2022-10-26T01:35:22;10.20;99.90
10873;DHT22;34586;53.616;10.032;2022-10-26T01:38:24;10.20;99.90
10873;DHT22;34586;53.616;10.032;2022-10-26T01:40:59;10.20;99.90
10873;DHT22;34586;53.616;10.032;2022-10-26T01:43:32;10.20;99.90
10873;DHT22;34586;53.616;10.032;2022-10-26T01:45:59;10.20;99.90
10873;DHT22;34586;53.616;10.032;2022-10-26T01:48:26;10.20;99.90
10873;DHT22;34586;53.616;10.032;2022-10-26T01:50:55;10.10;99.90
10873;DHT22;34586;53.616;10.032;2022-10-26T01:53:22;10.10;99.90
10873;DHT22;34586;53.616;10.032;2022-10-26T01:55:54;10.10;99.90
10873;DHT22;34586;53.616;10.032;2022-10-26T01:58:41;10.10;99.90
10873;DHT22;34586;53.616;10.032;2022-10-26T02:07:03;10.10;99.90
10873;DHT22;34586;53.616;10.032;2022-10-26T02:09:41;10.00;99.90
10873;DHT22;34586;53.616;10.032;2022-10-26T02:15:17;10.00;99.90
10873;DHT22;34586;53.616;10.032;2022-10-26T02:17:56;10.10;99.90
10873;DHT22;34586;53.616;10.032;2022-10-26T02:20:27;10.10;99.90
10873;DHT22;34586;53.616;10.032;2022-10-26T02:22:55;10.00;99.90
10873;DHT22;34586;53.616;10.032;2022-10-26T02:25:28;10.00;99.90
10873;DHT22;34586;53.616;10.032;2022-10-26T02:27:58;10.10;99.90
10873;DHT22;34586;53.616;10.032;2022-10-26T02:30:26;10.10;99.90
10873;DHT22;34586;53.616;10.032;2022-10-26T02:32:53;10.10;99.90
10873;DHT22;34586;53.616;10.032;2022-10-26T02:35:26;10.00;99.90
10873;DHT22;34586;53.616;10.032;2022-10-26T02:37:55;10.00;99.90
10873;DHT22;34586;53.616;10.032;2022-10-26T02:40:25;10.00;99.90
10873;DHT22;34586;53.616;10.032;2022-10-26T02:42:52;10.00;99.90
10873;DHT22;34586;53.616;10.032;2022-10-26T02:45:24;10.00;99.90
10873;DHT22;34586;53.616;10.032;2022-10-26T02:47:51;10.00;99.90
10873;DHT22;34586;53.616;10.032;2022-10-26T02:50:18;9.90;99.90
10873;DHT22;34586;53.616;10.032;2022-10-26T02:53:00;9.90;99.90
10873;DHT22;34586;53.616;10.032;2022-10-26T02:55:38;9.90;99.90
10873;DHT22;34586;53.616;10.032;2022-10-26T02:58:13;10.00;99.90
10873;DHT22;34586;53.616;10.032;2022-10-26T03:00:41;9.90;99.90
10873;DHT22;34586;53.616;10.032;2022-10-26T03:03:07;9.90;99.90
10873;DHT22;34586;53.616;10.032;2022-10-26T03:05:33;9.90;99.90
10873;DHT22;34586;53.616;10.032;2022-10-26T03:08:01;9.90;99.90
10873;DHT22;34586;53.616;10.032;2022-10-26T03:10:27;9.90;99.90
10873;DHT22;34586;53.616;10.032;2022-10-26T03:12:53;9.90;99.90
10873;DHT22;34586;53.616;10.032;2022-10-26T03:15:19;9.90;99.90
10873;DHT22;34586;53.616;10.032;2022-10-26T03:17:45;9.90;99.90
10873;DHT22;34586;53.616;10.032;2022-10-26T03:20:10;9.90;99.90
10873;DHT22;34586;53.616;10.032;2022-10-26T03:22:36;9.80;99.90
10873;DHT22;34586;53.616;10.032;2022-10-26T03:25:20;9.90;99.90
10873;DHT22;34586;53.616;10.032;2022-10-26T03:27:45;9.80;99.90
10873;DHT22;34586;53.616;10.032;2022-10-26T03:30:11;9.80;99.90
10873;DHT22;34586;53.616;10.032;2022-10-26T03:32:37;9.80;99.90
10873;DHT22;34586;53.616;10.032;2022-10-26T03:35:03;9.80;99.90
10873;DHT22;34586;53.616;10.032;2022-10-26T03:37:28;9.80;99.90
10873;DHT22;34586;53.616;10.032;2022-10-26T03:39:54;9.70;99.90
10873;DHT22;34586;53.616;10.032;2022-10-26T03:42:20;9.70;99.90
10873;DHT22;34586;53.616;10.032;2022-10-26T03:44:45;9.70;99.90
10873;DHT22;34586;53.616;10.032;2022-10-26T03:47:12;9.70;99.90
10873;DHT22;34586;53.616;10.032;2022-10-26T03:49:38;9.70;99.90
10873;DHT22;34586;53.616;10.032;2022-10-26T03:52:03;9.70;99.90
10873;DHT22;34586;53.616;10.032;2022-10-26T03:54:29;9.70;99.90
10873;DHT22;34586;53.616;10.032;2022-10-26T03:56:54;9.70;99.90
10873;DHT22;34586;53.616;10.032;2022-10-26T03:59:20;9.60;99.90
10873;DHT22;34586;53.616;10.032;2022-10-26T04:01:45;9.60;99.90
10873;DHT22;34586;53.616;10.032;2022-10-26T04:04:11;9.60;99.90
10873;DHT22;34586;53.616;10.032;2022-10-26T04:06:36;9.60;99.90
10873;DHT22;34586;53.616;10.032;2022-10-26T04:09:02;9.60;99.90
10873;DHT22;34586;53.616;10.032;2022-10-26T04:11:28;9.60;99.90
10873;DHT22;34586;53.616;10.032;2022-10-26T04:13:54;9.60;99.90
10873;DHT22;34586;53.616;10.032;2022-10-26T04:16:20;9.60;99.90
10873;DHT22;34586;53.616;10.032;2022-10-26T04:18:46;9.50;99.90
10873;DHT22;34586;53.616;10.032;2022-10-26T04:21:12;9.50;99.90
10873;DHT22;34586;53.616;10.032;2022-10-26T04:23:37;9.50;99.90
10873;DHT22;34586;53.616;10.032;2022-10-26T04:26:06;9.50;99.90
10873;DHT22;34586;53.616;10.032;2022-10-26T04:28:31;9.50;99.90
10873;DHT22;34586;53.616;10.032;2022-10-26T04:30:57;9.50;99.90
10873;DHT22;34586;53.616;10.032;2022-10-26T04:33:22;9.50;99.90
10873;DHT22;34586;53.616;10.032;2022-10-26T04:35:48;9.50;99.90
10873;DHT22;34586;53.616;10.032;2022-10-26T04:38:14;9.50;99.90
10873;DHT22;34586;53.616;10.032;2022-10-26T04:40:39;9.50;99.90
10873;DHT22;34586;53.616;10.032;2022-10-26T04:43:05;9.50;99.90
10873;DHT22;34586;53.616;10.032;2022-10-26T04:45:30;9.50;99.90
10873;DHT22;34586;53.616;10.032;2022-10-26T04:48:05;9.40;99.90
10873;DHT22;34586;53.616;10.032;2022-10-26T04:50:31;9.50;99.90
10873;DHT22;34586;53.616;10.032;2022-10-26T04:52:57;9.40;99.90
10873;DHT22;34586;53.616;10.032;2022-10-26T04:55:23;9.50;99.90
10873;DHT22;34586;53.616;10.032;2022-10-26T04:57:48;9.40;99.90
10873;DHT22;34586;53.616;10.032;2022-10-26T05:00:14;9.40;99.90
10873;DHT22;34586;53.616;10.032;2022-10-26T05:02:40;9.40;99.90
10873;DHT22;34586;53.616;10.032;2022-10-26T05:05:05;9.40;99.90
10873;DHT22;34586;53.616;10.032;2022-10-26T05:07:31;9.40;99.90
10873;DHT22;34586;53.616;10.032;2022-10-26T05:09:56;9.40;99.90
10873;DHT22;34586;53.616;10.032;2022-10-26T05:12:22;9.40;99.90
10873;DHT22;34586;53.616;10.032;2022-10-26T05:14:48;9.40;99.90
10873;DHT22;34586;53.616;10.032;2022-10-26T05:17:13;9.30;99.90
10873;DHT22;34586;53.616;10.032;2022-10-26T05:19:39;9.30;99.90
10873;DHT22;34586;53.616;10.032;2022-10-26T05:22:04;9.30;99.90
10873;DHT22;34586;53.616;10.032;2022-10-26T05:24:30;9.30;99.90
10873;DHT22;34586;53.616;10.032;2022-10-26T05:26:55;9.30;99.90
10873;DHT22;34586;53.616;10.032;2022-10-26T05:29:21;9.30;99.90
10873;DHT22;34586;53.616;10.032;2022-10-26T05:31:46;9.20;99.90
10873;DHT22;34586;53.616;10.032;2022-10-26T05:34:12;9.20;99.90
10873;DHT22;34586;53.616;10.032;2022-10-26T05:36:37;9.20;99.90
10873;DHT22;34586;53.616;10.032;2022-10-26T05:39:03;9.20;99.90
10873;DHT22;34586;53.616;10.032;2022-10-26T05:41:29;9.20;99.90
10873;DHT22;34586;53.616;10.032;2022-10-26T05:43:54;9.20;99.90
10873;DHT22;34586;53.616;10.032;2022-10-26T05:46:20;9.20;99.90
10873;DHT22;34586;53.616;10.032;2022-10-26T05:48:45;9.20;99.90
10873;DHT22;34586;53.616;10.032;2022-10-26T05:51:11;9.20;99.90
10873;DHT22;34586;53.616;10.032;2022-10-26T05:53:37;9.20;99.90
10873;DHT22;34586;53.616;10.032;2022-10-26T05:56:16;9.20;99.90
10873;DHT22;34586;53.616;10.032;2022-10-26T05:58:42;9.20;99.90
10873;DHT22;34586;53.616;10.032;2022-10-26T06:06:15;9.20;99.90
10873;DHT22;34586;53.616;10.032;2022-10-26T06:08:40;9.20;99.90
10873;DHT22;34586;53.616;10.032;2022-10-26T06:11:07;9.20;99.90
10873;DHT22;34586;53.616;10.032;2022-10-26T06:13:33;9.20;99.90
10873;DHT22;34586;53.616;10.032;2022-10-26T06:18:53;9.20;99.90
10873;DHT22;34586;53.616;10.032;2022-10-26T06:29:50;9.20;99.90
10873;DHT22;34586;53.616;10.032;2022-10-26T06:32:21;9.20;99.90
10873;DHT22;34586;53.616;10.032;2022-10-26T06:34:49;9.20;99.90
10873;DHT22;34586;53.616;10.032;2022-10-26T06:37:15;9.20;99.90
10873;DHT22;34586;53.616;10.032;2022-10-26T06:39:45;9.20;99.90
10873;DHT22;34586;53.616;10.032;2022-10-26T06:42:11;9.20;99.90
10873;DHT22;34586;53.616;10.032;2022-10-26T06:44:37;9.20;99.90
10873;DHT22;34586;53.616;10.032;2022-10-26T06:47:11;9.30;99.90
10873;DHT22;34586;53.616;10.032;2022-10-26T06:50:11;9.20;99.90
10873;DHT22;34586;53.616;10.032;2022-10-26T06:52:44;9.30;99.90
10873;DHT22;34586;53.616;10.032;2022-10-26T06:55:14;9.30;99.90
10873;DHT22;34586;53.616;10.032;2022-10-26T06:57:41;9.30;99.90
10873;DHT22;34586;53.616;10.032;2022-10-26T07:00:21;9.30;99.90
10873;DHT22;34586;53.616;10.032;2022-10-26T07:02:48;9.30;99.90
10873;DHT22;34586;53.616;10.032;2022-10-26T07:05:14;9.40;99.90
10873;DHT22;34586;53.616;10.032;2022-10-26T07:07:44;9.40;99.90
10873;DHT22;34586;53.616;10.032;2022-10-26T07:10:11;9.40;99.90
10873;DHT22;34586;53.616;10.032;2022-10-26T07:12:37;9.50;99.90
10873;DHT22;34586;53.616;10.032;2022-10-26T07:15:04;9.50;99.90
10873;DHT22;34586;53.616;10.032;2022-10-26T07:17:30;9.50;99.90
10873;DHT22;34586;53.616;10.032;2022-10-26T07:19:55;9.60;99.90
10873;DHT22;34586;53.616;10.032;2022-10-26T07:22:21;9.60;99.90
10873;DHT22;34586;53.616;10.032;2022-10-26T07:24:47;9.70;99.90
10873;DHT22;34586;53.616;10.032;2022-10-26T07:27:15;9.70;99.90
10873;DHT22;34586;53.616;10.032;2022-10-26T07:29:41;9.80;99.90
10873;DHT22;34586;53.616;10.032;2022-10-26T07:32:07;9.80;99.90
10873;DHT22;34586;53.616;10.032;2022-10-26T07:34:33;9.80;99.90
10873;DHT22;34586;53.616;10.032;2022-10-26T07:36:59;9.90;99.90
10873;DHT22;34586;53.616;10.032;2022-10-26T07:39:25;10.00;99.90
10873;DHT22;34586;53.616;10.032;2022-10-26T07:41:50;10.00;99.90
10873;DHT22;34586;53.616;10.032;2022-10-26T07:44:16;10.10;99.90
10873;DHT22;34586;53.616;10.032;2022-10-26T07:46:41;10.10;99.90
10873;DHT22;34586;53.616;10.032;2022-10-26T07:49:07;10.20;99.90
10873;DHT22;34586;53.616;10.032;2022-10-26T07:51:33;10.30;99.90
10873;DHT22;34586;53.616;10.032;2022-10-26T07:53:58;10.40;99.90
10873;DHT22;34586;53.616;10.032;2022-10-26T07:56:24;10.40;99.90
10873;DHT22;34586;53.616;10.032;2022-10-26T07:58:51;10.50;99.90
10873;DHT22;34586;53.616;10.032;2022-10-26T08:01:17;10.60;99.90
10873;DHT22;34586;53.616;10.032;2022-10-26T08:03:43;10.60;99.90
10873;DHT22;34586;53.616;10.032;2022-10-26T08:06:08;10.80;99.90
10873;DHT22;34586;53.616;10.032;2022-10-26T08:08:35;10.80;99.90
10873;DHT22;34586;53.616;10.032;2022-10-26T08:11:00;11.20;99.90
10873;DHT22;34586;53.616;10.032;2022-10-26T08:13:26;12.10;99.90
10873;DHT22;34586;53.616;10.032;2022-10-26T08:15:59;11.00;99.90
10873;DHT22;34586;53.616;10.032;2022-10-26T08:18:25;11.00;99.90
10873;DHT22;34586;53.616;10.032;2022-10-26T08:20:51;11.10;99.90
10873;DHT22;34586;53.616;10.032;2022-10-26T08:23:16;11.10;99.90
10873;DHT22;34586;53.616;10.032;2022-10-26T08:25:42;11.20;99.90
10873;DHT22;34586;53.616;10.032;2022-10-26T08:28:07;11.20;99.90
10873;DHT22;34586;53.616;10.032;2022-10-26T08:30:33;11.30;99.90
10873;DHT22;34586;53.616;10.032;2022-10-26T08:33:06;11.40;99.90
10873;DHT22;34586;53.616;10.032;2022-10-26T08:35:33;11.40;99.90
10873;DHT22;34586;53.616;10.032;2022-10-26T08:37:58;11.50;99.90
10873;DHT22;34586;53.616;10.032;2022-10-26T08:40:27;11.60;99.90
10873;DHT22;34586;53.616;10.032;2022-10-26T08:43:04;11.80;99.90
10873;DHT22;34586;53.616;10.032;2022-10-26T08:45:58;11.70;99.90
10873;DHT22;34586;53.616;10.032;2022-10-26T08:48:29;11.80;99.90
10873;DHT22;34586;53.616;10.032;2022-10-26T08:51:00;11.90;99.90
10873;DHT22;34586;53.616;10.032;2022-10-26T08:53:49;11.90;99.90
10873;DHT22;34586;53.616;10.032;2022-10-26T08:56:21;12.00;99.90
10873;DHT22;34586;53.616;10.032;2022-10-26T08:59:01;12.00;99.90
10873;DHT22;34586;53.616;10.032;2022-10-26T09:01:32;12.00;99.90
10873;DHT22;34586;53.616;10.032;2022-10-26T09:04:01;11.70;99.90
10873;DHT22;34586;53.616;10.032;2022-10-26T09:06:32;12.10;99.90
10873;DHT22;34586;53.616;10.032;2022-10-26T09:09:20;12.20;99.90
10873;DHT22;34586;53.616;10.032;2022-10-26T09:12:26;12.30;99.90
10873;DHT22;34586;53.616;10.032;2022-10-26T09:15:13;12.30;99.90
10873;DHT22;34586;53.616;10.032;2022-10-26T09:20:43;12.50;99.90
10873;DHT22;34586;53.616;10.032;2022-10-26T09:25:59;12.60;99.90
10873;DHT22;34586;53.616;10.032;2022-10-26T09:28:30;12.60;99.90
10873;DHT22;34586;53.616;10.032;2022-10-26T09:30:59;12.70;99.90
10873;DHT22;34586;53.616;10.032;2022-10-26T09:33:25;12.70;99.90
10873;DHT22;34586;53.616;10.032;2022-10-26T09:36:02;12.80;99.90
10873;DHT22;34586;53.616;10.032;2022-10-26T09:38:42;12.80;99.90
10873;DHT22;34586;53.616;10.032;2022-10-26T09:41:23;12.90;99.90
10873;DHT22;34586;53.616;10.032;2022-10-26T09:43:57;12.90;99.90
10873;DHT22;34586;53.616;10.032;2022-10-26T09:46:54;13.00;99.90
10873;DHT22;34586;53.616;10.032;2022-10-26T09:49:26;13.00;99.90
10873;DHT22;34586;53.616;10.032;2022-10-26T09:51:55;13.10;99.90
10873;DHT22;34586;53.616;10.032;2022-10-26T09:54:21;13.10;99.90
10873;DHT22;34586;53.616;10.032;2022-10-26T09:56:53;13.20;99.90
10873;DHT22;34586;53.616;10.032;2022-10-26T09:59:22;13.20;99.90
10873;DHT22;34586;53.616;10.032;2022-10-26T10:01:48;13.30;99.90
10873;DHT22;34586;53.616;10.032;2022-10-26T10:06:49;13.40;99.90
10873;DHT22;34586;53.616;10.032;2022-10-26T10:09:15;13.40;99.90
10873;DHT22;34586;53.616;10.032;2022-10-26T10:11:51;13.50;99.90
10873;DHT22;34586;53.616;10.032;2022-10-26T10:14:36;13.60;99.90
10873;DHT22;34586;53.616;10.032;2022-10-26T10:17:05;13.60;99.90
10873;DHT22;34586;53.616;10.032;2022-10-26T10:19:36;13.70;99.90
10873;DHT22;34586;53.616;10.032;2022-10-26T10:22:11;13.80;99.90
10873;DHT22;34586;53.616;10.032;2022-10-26T10:24:42;13.80;99.90
10873;DHT22;34586;53.616;10.032;2022-10-26T10:27:17;13.90;99.90
10873;DHT22;34586;53.616;10.032;2022-10-26T10:29:47;13.90;99.90
10873;DHT22;34586;53.616;10.032;2022-10-26T10:32:28;14.00;99.90
10873;DHT22;34586;53.616;10.032;2022-10-26T10:35:00;14.10;99.90
10873;DHT22;34586;53.616;10.032;2022-10-26T10:37:33;14.20;99.90
10873;DHT22;34586;53.616;10.032;2022-10-26T10:40:16;14.20;99.90
10873;DHT22;34586;53.616;10.032;2022-10-26T10:42:44;14.30;93.80
10873;DHT22;34586;53.616;10.032;2022-10-26T10:45:22;14.40;53.60
10873;DHT22;34586;53.616;10.032;2022-10-26T10:50:38;14.50;62.90
10873;DHT22;34586;53.616;10.032;2022-10-26T10:53:22;14.50;55.10
10873;DHT22;34586;53.616;10.032;2022-10-26T10:56:18;14.50;46.00
10873;DHT22;34586;53.616;10.032;2022-10-26T10:59:17;14.50;63.10
10873;DHT22;34586;53.616;10.032;2022-10-26T11:07:29;14.60;74.90
10873;DHT22;34586;53.616;10.032;2022-10-26T11:10:01;14.60;75.60
10873;DHT22;34586;53.616;10.032;2022-10-26T11:12:38;14.70;54.10
10873;DHT22;34586;53.616;10.032;2022-10-26T11:15:15;14.70;52.70
10873;DHT22;34586;53.616;10.032;2022-10-26T11:20:30;14.80;52.40
10873;DHT22;34586;53.616;10.032;2022-10-26T11:23:10;14.80;49.80
10873;DHT22;34586;53.616;10.032;2022-10-26T11:25:50;15.00;27.30
10873;DHT22;34586;53.616;10.032;2022-10-26T11:31:35;15.10;8.50
10873;DHT22;34586;53.616;10.032;2022-10-26T11:34:06;15.20;1.20
10873;DHT22;34586;53.616;10.032;2022-10-26T11:36:35;15.20;1.00
10873;DHT22;34586;53.616;10.032;2022-10-26T11:39:18;15.30;4.90
10873;DHT22;34586;53.616;10.032;2022-10-26T11:41:49;15.30;8.80
10873;DHT22;34586;53.616;10.032;2022-10-26T11:44:37;15.30;6.80
10873;DHT22;34586;53.616;10.032;2022-10-26T11:47:14;15.40;16.00
10873;DHT22;34586;53.616;10.032;2022-10-26T11:52:23;15.50;1.00
10873;DHT22;34586;53.616;10.032;2022-10-26T11:55:00;15.60;1.00
10873;DHT22;34586;53.616;10.032;2022-10-26T11:57:30;15.80;1.00
10873;DHT22;34586;53.616;10.032;2022-10-26T12:00:12;15.90;1.00
10873;DHT22;34586;53.616;10.032;2022-10-26T12:02:40;16.10;1.00
10873;DHT22;34586;53.616;10.032;2022-10-26T12:07:45;16.40;1.00
10873;DHT22;34586;53.616;10.032;2022-10-26T12:10:28;16.50;1.00
10873;DHT22;34586;53.616;10.032;2022-10-26T12:16:00;17.30;99.90
10873;DHT22;34586;53.616;10.032;2022-10-26T12:19:04;17.50;97.10
10873;DHT22;34586;53.616;10.032;2022-10-26T12:21:31;17.90;99.90
10873;DHT22;34586;53.616;10.032;2022-10-26T12:27:04;18.40;99.90
10873;DHT22;34586;53.616;10.032;2022-10-26T12:29:44;18.60;1.00
10873;DHT22;34586;53.616;10.032;2022-10-26T12:35:34;18.50;99.90
10873;DHT22;34586;53.616;10.032;2022-10-26T12:43:36;18.30;1.00
10873;DHT22;34586;53.616;10.032;2022-10-26T12:48:42;18.70;14.30
10873;DHT22;34586;53.616;10.032;2022-10-26T12:56:41;18.60;99.90
10873;DHT22;34586;53.616;10.032;2022-10-26T12:59:37;18.70;99.90
10873;DHT22;34586;53.616;10.032;2022-10-26T13:07:26;18.60;99.90
10873;DHT22;34586;53.616;10.032;2022-10-26T13:10:04;18.70;58.50
10873;DHT22;34586;53.616;10.032;2022-10-26T13:12:55;18.70;99.90
10873;DHT22;34586;53.616;10.032;2022-10-26T13:15:24;18.60;99.90
10873;DHT22;34586;53.616;10.032;2022-10-26T13:20:21;18.60;1.00
10873;DHT22;34586;53.616;10.032;2022-10-26T13:22:47;18.50;99.90
10873;DHT22;34586;53.616;10.032;2022-10-26T13:25:21;18.50;1.00
10873;DHT22;34586;53.616;10.032;2022-10-26T13:28:00;18.40;1.00
10873;DHT22;34586;53.616;10.032;2022-10-26T13:32:58;18.40;17.40
10873;DHT22;34586;53.616;10.032;2022-10-26T13:35:25;18.40;26.90
10873;DHT22;34586;53.616;10.032;2022-10-26T13:37:53;18.40;1.00
10873;DHT22;34586;53.616;10.032;2022-10-26T13:40:25;18.40;1.00
10873;DHT22;34586;53.616;10.032;2022-10-26T13:45:46;18.10;1.00
10873;DHT22;34586;53.616;10.032;2022-10-26T13:48:21;18.10;1.00
10873;DHT22;34586;53.616;10.032;2022-10-26T13:50:52;18.00;1.00
10873;DHT22;34586;53.616;10.032;2022-10-26T13:53:31;18.00;1.00
10873;DHT22;34586;53.616;10.032;2022-10-26T13:56:12;17.90;1.00
10873;DHT22;34586;53.616;10.032;2022-10-26T13:58:47;17.70;5.70
10873;DHT22;34586;53.616;10.032;2022-10-26T14:01:16;17.70;99.90
10873;DHT22;34586;53.616;10.032;2022-10-26T14:03:43;17.60;99.90
10873;DHT22;34586;53.616;10.032;2022-10-26T14:08:43;17.60;1.00
10873;DHT22;34586;53.616;10.032;2022-10-26T14:11:13;17.50;1.00
10873;DHT22;34586;53.616;10.032;2022-10-26T14:13:40;17.50;1.00
10873;DHT22;34586;53.616;10.032;2022-10-26T14:16:09;17.40;1.00
10873;DHT22;34586;53.616;10.032;2022-10-26T14:18:36;17.20;1.00
10873;DHT22;34586;53.616;10.032;2022-10-26T14:21:10;17.30;1.00
10873;DHT22;34586;53.616;10.032;2022-10-26T14:23:48;17.10;1.00
10873;DHT22;34586;53.616;10.032;2022-10-26T14:28:50;17.00;1.00
10873;DHT22;34586;53.616;10.032;2022-10-26T14:31:22;17.00;1.00
10873;DHT22;34586;53.616;10.032;2022-10-26T14:33:48;17.00;1.00
10873;DHT22;34586;53.616;10.032;2022-10-26T14:36:16;17.00;1.00
10873;DHT22;34586;53.616;10.032;2022-10-26T14:38:47;17.00;1.00
10873;DHT22;34586;53.616;10.032;2022-10-26T14:41:16;17.00;1.00
10873;DHT22;34586;53.616;10.032;2022-10-26T14:43:43;17.00;1.00
10873;DHT22;34586;53.616;10.032;2022-10-26T14:46:14;16.90;1.00
10873;DHT22;34586;53.616;10.032;2022-10-26T14:48:55;16.90;1.00
10873;DHT22;34586;53.616;10.032;2022-10-26T14:51:26;16.80;1.00
10873;DHT22;34586;53.616;10.032;2022-10-26T14:53:58;16.70;1.00
10873;DHT22;34586;53.616;10.032;2022-10-26T14:58:53;16.70;10.20
10873;DHT22;34586;53.616;10.032;2022-10-26T15:03:59;16.60;1.00
10873;DHT22;34586;53.616;10.032;2022-10-26T15:08:55;16.40;4.60
10873;DHT22;34586;53.616;10.032;2022-10-26T15:11:21;16.40;12.50
10873;DHT22;34586;53.616;10.032;2022-10-26T15:13:46;16.30;28.00
10873;DHT22;34586;53.616;10.032;2022-10-26T15:16:24;16.20;45.00
10873;DHT22;34586;53.616;10.032;2022-10-26T15:19:15;16.10;56.80
10873;DHT22;34586;53.616;10.032;2022-10-26T15:21:45;16.00;70.30
10873;DHT22;34586;53.616;10.032;2022-10-26T15:24:31;16.00;77.30
10873;DHT22;34586;53.616;10.032;2022-10-26T15:26:57;15.80;83.80
10873;DHT22;34586;53.616;10.032;2022-10-26T15:29:44;15.70;91.70
10873;DHT22;34586;53.616;10.032;2022-10-26T15:32:30;15.70;98.80
10873;DHT22;34586;53.616;10.032;2022-10-26T15:35:29;15.60;99.90
10873;DHT22;34586;53.616;10.032;2022-10-26T15:37:56;15.50;99.90
10873;DHT22;34586;53.616;10.032;2022-10-26T15:40:24;15.50;99.90
10873;DHT22;34586;53.616;10.032;2022-10-26T15:42:51;15.40;99.90
10873;DHT22;34586;53.616;10.032;2022-10-26T15:45:20;15.30;99.90
10873;DHT22;34586;53.616;10.032;2022-10-26T15:47:47;15.30;99.90
10873;DHT22;34586;53.616;10.032;2022-10-26T15:50:15;15.20;99.90
10873;DHT22;34586;53.616;10.032;2022-10-26T15:52:41;15.10;99.90
10873;DHT22;34586;53.616;10.032;2022-10-26T15:55:07;15.10;99.90
10873;DHT22;34586;53.616;10.032;2022-10-26T15:57:33;15.00;99.90
10873;DHT22;34586;53.616;10.032;2022-10-26T15:59:59;14.90;99.90
10873;DHT22;34586;53.616;10.032;2022-10-26T16:02:24;14.90;99.90
10873;DHT22;34586;53.616;10.032;2022-10-26T16:04:51;14.80;99.90
10873;DHT22;34586;53.616;10.032;2022-10-26T16:07:17;14.70;99.90
10873;DHT22;34586;53.616;10.032;2022-10-26T16:09:43;14.70;99.90
10873;DHT22;34586;53.616;10.032;2022-10-26T16:12:12;14.60;99.90
10873;DHT22;34586;53.616;10.032;2022-10-26T16:14:38;14.60;99.90
10873;DHT22;34586;53.616;10.032;2022-10-26T16:17:05;14.60;99.90
10873;DHT22;34586;53.616;10.032;2022-10-26T16:19:32;14.50;99.90
10873;DHT22;34586;53.616;10.032;2022-10-26T16:21:58;14.60;99.90
10873;DHT22;34586;53.616;10.032;2022-10-26T16:24:25;14.60;99.90
10873;DHT22;34586;53.616;10.032;2022-10-26T16:26:51;14.60;99.90
10873;DHT22;34586;53.616;10.032;2022-10-26T16:29:17;14.60;99.90
10873;DHT22;34586;53.616;10.032;2022-10-26T16:31:44;14.60;99.90
10873;DHT22;34586;53.616;10.032;2022-10-26T16:34:09;14.70;99.90
10873;DHT22;34586;53.616;10.032;2022-10-26T16:36:35;14.70;99.90
10873;DHT22;34586;53.616;10.032;2022-10-26T16:39:02;14.70;99.90
10873;DHT22;34586;53.616;10.032;2022-10-26T16:41:28;14.70;99.90
10873;DHT22;34586;53.616;10.032;2022-10-26T16:43:55;14.70;99.90
10873;DHT22;34586;53.616;10.032;2022-10-26T16:46:21;14.70;99.90
10873;DHT22;34586;53.616;10.032;2022-10-26T16:48:47;14.70;99.90
10873;DHT22;34586;53.616;10.032;2022-10-26T16:51:17;14.60;99.90
10873;DHT22;34586;53.616;10.032;2022-10-26T16:53:44;14.60;99.90
10873;DHT22;34586;53.616;10.032;2022-10-26T16:56:12;14.50;99.90
10873;DHT22;34586;53.616;10.032;2022-10-26T16:58:39;14.40;99.90
10873;DHT22;34586;53.616;10.032;2022-10-26T17:01:05;14.40;99.90
10873;DHT22;34586;53.616;10.032;2022-10-26T17:03:31;14.30;99.90
10873;DHT22;34586;53.616;10.032;2022-10-26T17:06:02;14.20;99.90
10873;DHT22;34586;53.616;10.032;2022-10-26T17:08:29;14.20;99.90
10873;DHT22;34586;53.616;10.032;2022-10-26T17:11:09;14.10;99.90
10873;DHT22;34586;53.616;10.032;2022-10-26T17:13:35;14.00;99.90
10873;DHT22;34586;53.616;10.032;2022-10-26T17:16:11;14.00;99.90
10873;DHT22;34586;53.616;10.032;2022-10-26T17:18:41;14.00;99.90
10873;DHT22;34586;53.616;10.032;2022-10-26T17:21:10;13.90;99.90
10873;DHT22;34586;53.616;10.032;2022-10-26T17:23:36;13.90;99.90
10873;DHT22;34586;53.616;10.032;2022-10-26T17:26:03;13.90;99.90
10873;DHT22;34586;53.616;10.032;2022-10-26T17:28:29;13.80;99.90